Time,TemperatureF,DewpointF,PressureIn,WindDirection,WindDirectionDegrees,WindSpeedMPH,WindSpeedGustMPH,Humidity,HourlyPrecipIn,Conditions,Clouds,dailyrainin,SoftwareType,DateUTC
2013-03-29 00:01:00,44.5,29.8,30.32,North,5,1.0,4.0,56,0.00,,,0.00,Wunderground v.1.15,2013-03-29 05:01:00,
2013-03-29 00:06:00,44.4,29.7,30.32,North,5,0.0,4.0,56,0.00,,,0.00,Wunderground v.1.15,2013-03-29 05:06:00,
2013-03-29 00:12:00,44.2,29.5,30.32,ENE,61,2.0,2.0,56,0.00,,,0.00,Wunderground v.1.15,2013-03-29 05:12:00,
2013-03-29 00:17:00,44.1,29.4,30.32,NE,44,2.0,2.0,56,0.00,,,0.00,Wunderground v.1.15,2013-03-29 05:17:00,
2013-03-29 00:23:00,44.1,29.8,30.32,NE,39,2.0,3.0,57,0.00,,,0.00,Wunderground v.1.15,2013-03-29 05:23:00,
2013-03-29 00:29:00,44.2,29.5,30.32,NE,39,0.0,3.0,56,0.00,,,0.00,Wunderground v.1.15,2013-03-29 05:29:00,
2013-03-29 00:34:00,44.1,29.4,30.32,NE,39,0.0,2.0,56,0.00,,,0.00,Wunderground v.1.15,2013-03-29 05:34:00,
2013-03-29 00:40:00,44.0,29.7,30.32,ESE,103,1.0,1.0,57,0.00,,,0.00,Wunderground v.1.15,2013-03-29 05:40:00,
2013-03-29 00:46:00,43.8,29.5,30.32,ESE,103,0.0,3.0,57,0.00,,,0.00,Wunderground v.1.15,2013-03-29 05:46:00,
2013-03-29 00:52:00,43.8,29.5,30.32,ESE,103,0.0,1.0,57,0.00,,,0.00,Wunderground v.1.15,2013-03-29 05:52:00,
2013-03-29 00:57:00,43.8,29.5,30.33,ESE,103,0.0,1.0,57,0.00,,,0.00,Wunderground v.1.15,2013-03-29 05:57:00,
2013-03-29 01:03:00,43.8,29.5,30.32,ESE,102,0.0,0.0,57,0.00,,,0.00,Wunderground v.1.15,2013-03-29 06:03:00,
2013-03-29 01:09:00,44.0,29.7,30.33,ESE,103,1.0,1.0,57,0.00,,,0.00,Wunderground v.1.15,2013-03-29 06:09:00,
2013-03-29 01:15:00,44.1,29.8,30.33,ESE,102,0.0,0.0,57,0.00,,,0.00,Wunderground v.1.15,2013-03-29 06:15:00,
2013-03-29 01:20:00,44.1,29.8,30.33,ESE,102,0.0,0.0,57,0.00,,,0.00,Wunderground v.1.15,2013-03-29 06:20:00,
2013-03-29 01:26:00,43.9,29.6,30.32,ESE,103,2.0,2.0,57,0.00,,,0.00,Wunderground v.1.15,2013-03-29 06:26:00,
2013-03-29 01:31:00,43.9,29.6,30.32,ESE,102,3.0,3.0,57,0.00,,,0.00,Wunderground v.1.15,2013-03-29 06:31:00,
2013-03-29 01:36:00,44.1,29.8,30.32,ESE,102,2.0,3.0,57,0.00,,,0.00,Wunderground v.1.15,2013-03-29 06:36:00,
2013-03-29 01:41:00,44.1,28.0,30.32,ESE,102,0.0,2.0,53,0.00,,,0.00,Wunderground v.1.15,2013-03-29 06:41:00,
2013-03-29 01:46:00,44.2,29.0,30.32,ESE,102,2.0,2.0,55,0.00,,,0.00,Wunderground v.1.15,2013-03-29 06:46:00,
2013-03-29 01:52:00,44.3,29.1,30.32,ESE,102,1.0,1.0,55,0.00,,,0.00,Wunderground v.1.15,2013-03-29 06:52:00,
2013-03-29 01:57:00,44.5,29.3,30.32,ESE,102,0.0,1.0,55,0.00,,,0.00,Wunderground v.1.15,2013-03-29 06:57:00,
2013-03-29 02:02:00,44.6,28.5,30.32,ESE,102,0.0,1.0,53,0.00,,,0.00,Wunderground v.1.15,2013-03-29 07:02:00,
2013-03-29 02:07:00,44.7,29.5,30.32,ESE,102,1.0,2.0,55,0.00,,,0.00,Wunderground v.1.15,2013-03-29 07:07:00,
2013-03-29 02:12:00,44.7,29.1,30.31,ESE,102,2.0,2.0,54,0.00,,,0.00,Wunderground v.1.15,2013-03-29 07:12:00,
2013-03-29 02:17:00,44.7,27.2,30.31,ESE,102,2.0,3.0,50,0.00,,,0.00,Wunderground v.1.15,2013-03-29 07:17:00,
2013-03-29 02:22:00,44.9,26.9,30.31,ESE,102,1.0,2.0,49,0.00,,,0.00,Wunderground v.1.15,2013-03-29 07:22:00,
2013-03-29 02:27:00,45.0,27.0,30.30,ESE,102,2.0,3.0,49,0.00,,,0.00,Wunderground v.1.15,2013-03-29 07:27:00,
2013-03-29 02:32:00,45.1,25.5,30.30,East,101,2.0,2.0,46,0.00,,,0.00,Wunderground v.1.15,2013-03-29 07:32:00,
2013-03-29 02:37:00,45.2,26.1,30.30,East,101,2.0,5.0,47,0.00,,,0.00,Wunderground v.1.15,2013-03-29 07:37:00,
2013-03-29 02:42:00,45.1,26.1,30.30,East,101,2.0,3.0,47,0.00,,,0.00,Wunderground v.1.15,2013-03-29 07:42:00,
2013-03-29 02:47:00,45.1,26.6,30.30,East,101,0.0,3.0,48,0.00,,,0.00,Wunderground v.1.15,2013-03-29 07:47:00,
2013-03-29 02:52:00,45.0,24.9,30.30,East,101,2.0,3.0,45,0.00,,,0.00,Wunderground v.1.15,2013-03-29 07:52:00,
2013-03-29 02:57:00,44.9,25.3,30.30,ESE,108,4.0,6.0,46,0.00,,,0.00,Wunderground v.1.15,2013-03-29 07:57:00,
2013-03-29 03:02:00,44.8,22.5,30.29,ESE,107,3.0,4.0,41,0.00,,,0.00,Wunderground v.1.15,2013-03-29 08:02:00,
2013-03-29 03:07:00,44.7,18.7,30.29,East,96,1.0,5.0,35,0.00,,,0.00,Wunderground v.1.15,2013-03-29 08:07:00,
2013-03-29 03:12:00,44.8,17.4,30.29,East,96,2.0,3.0,33,0.00,,,0.00,Wunderground v.1.15,2013-03-29 08:12:00,
2013-03-29 03:17:00,44.7,20.6,30.30,East,96,0.0,3.0,38,0.00,,,0.00,Wunderground v.1.15,2013-03-29 08:17:00,
2013-03-29 03:22:00,44.8,18.1,30.30,East,96,0.0,1.0,34,0.00,,,0.00,Wunderground v.1.15,2013-03-29 08:22:00,
2013-03-29 03:27:00,44.8,18.1,30.29,East,99,3.0,3.0,34,0.00,,,0.00,Wunderground v.1.15,2013-03-29 08:27:00,
2013-03-29 03:32:00,44.7,22.4,30.29,ESE,111,4.0,5.0,41,0.00,,,0.00,Wunderground v.1.15,2013-03-29 08:32:00,
2013-03-29 03:37:00,44.3,25.8,30.29,ESE,115,5.0,5.0,48,0.00,,,0.00,Wunderground v.1.15,2013-03-29 08:37:00,
2013-03-29 03:42:00,44.0,27.0,30.28,ESE,123,8.0,8.0,51,0.00,,,0.00,Wunderground v.1.15,2013-03-29 08:42:00,
2013-03-29 03:47:00,43.6,27.6,30.28,ESE,121,7.0,8.0,53,0.00,,,0.00,Wunderground v.1.15,2013-03-29 08:47:00,
2013-03-29 03:52:00,43.2,28.1,30.28,ESE,123,8.0,8.0,55,0.00,,,0.00,Wunderground v.1.15,2013-03-29 08:52:00,
2013-03-29 03:57:00,42.4,27.8,30.28,SE,128,8.0,10.0,56,0.00,,,0.00,Wunderground v.1.15,2013-03-29 08:57:00,
2013-03-29 04:02:00,41.9,26.0,30.29,ESE,117,7.0,8.0,53,0.00,,,0.00,Wunderground v.1.15,2013-03-29 09:02:00,
2013-03-29 04:07:00,41.7,25.4,30.28,SE,124,8.0,9.0,52,0.00,,,0.00,Wunderground v.1.15,2013-03-29 09:07:00,
2013-03-29 04:12:00,41.5,24.7,30.29,ESE,123,8.0,9.0,51,0.00,,,0.00,Wunderground v.1.15,2013-03-29 09:12:00,
2013-03-29 04:17:00,41.4,24.1,30.28,ESE,122,8.0,9.0,50,0.00,,,0.00,Wunderground v.1.15,2013-03-29 09:17:00,
2013-03-29 04:22:00,41.3,24.0,30.28,SE,127,8.0,10.0,50,0.00,,,0.00,Wunderground v.1.15,2013-03-29 09:22:00,
2013-03-29 04:27:00,41.2,24.4,30.28,ESE,123,10.0,10.0,51,0.00,,,0.00,Wunderground v.1.15,2013-03-29 09:27:00,
2013-03-29 04:32:00,41.0,24.7,30.28,SE,124,8.0,9.0,52,0.00,,,0.00,Wunderground v.1.15,2013-03-29 09:32:00,
2013-03-29 04:37:00,40.7,25.3,30.28,SE,124,9.0,11.0,54,0.00,,,0.00,Wunderground v.1.15,2013-03-29 09:37:00,
2013-03-29 04:42:00,40.5,26.0,30.28,ESE,123,11.0,11.0,56,0.00,,,0.00,Wunderground v.1.15,2013-03-29 09:42:00,
2013-03-29 04:48:00,39.9,25.9,30.28,SE,134,10.0,11.0,57,0.00,,,0.00,Wunderground v.1.15,2013-03-29 09:48:00,
2013-03-29 04:53:00,39.6,26.0,30.28,SSE,168,10.0,12.0,58,0.00,,,0.00,Wunderground v.1.15,2013-03-29 09:53:00,
2013-03-29 04:58:00,39.3,26.2,30.28,ESE,107,8.0,12.0,59,0.00,,,0.00,Wunderground v.1.15,2013-03-29 09:58:00,
2013-03-29 05:03:00,39.2,25.6,30.28,SSE,168,10.0,12.0,58,0.00,,,0.00,Wunderground v.1.15,2013-03-29 10:03:00,
2013-03-29 05:08:00,39.1,25.1,30.27,ESE,115,10.0,12.0,57,0.00,,,0.00,Wunderground v.1.15,2013-03-29 10:08:00,
2013-03-29 05:13:00,39.0,25.0,30.27,SE,127,9.0,11.0,57,0.00,,,0.00,Wunderground v.1.15,2013-03-29 10:13:00,
2013-03-29 05:18:00,39.0,24.6,30.28,SE,132,9.0,12.0,56,0.00,,,0.00,Wunderground v.1.15,2013-03-29 10:18:00,
2013-03-29 05:23:00,38.9,24.5,30.28,SE,134,9.0,11.0,56,0.00,,,0.00,Wunderground v.1.15,2013-03-29 10:23:00,
2013-03-29 05:28:00,38.9,24.5,30.28,SSE,160,9.0,12.0,56,0.00,,,0.00,Wunderground v.1.15,2013-03-29 10:28:00,
2013-03-29 05:33:00,38.8,24.4,30.28,ESE,120,10.0,10.0,56,0.00,,,0.00,Wunderground v.1.15,2013-03-29 10:33:00,
2013-03-29 05:38:00,38.8,24.0,30.28,SE,146,9.0,11.0,55,0.00,,,0.00,Wunderground v.1.15,2013-03-29 10:38:00,
2013-03-29 05:43:00,38.8,24.0,30.28,SE,134,8.0,10.0,55,0.00,,,0.00,Wunderground v.1.15,2013-03-29 10:43:00,
2013-03-29 05:48:00,38.8,24.0,30.28,SE,131,9.0,11.0,55,0.00,,,0.00,Wunderground v.1.15,2013-03-29 10:48:00,
2013-03-29 05:53:00,38.9,24.1,30.27,SE,140,8.0,10.0,55,0.00,,,0.00,Wunderground v.1.15,2013-03-29 10:53:00,
2013-03-29 05:59:00,38.9,24.1,30.28,SE,128,8.0,11.0,55,0.00,,,0.00,Wunderground v.1.15,2013-03-29 10:59:00,
2013-03-29 06:04:00,38.8,24.0,30.28,SE,128,8.0,11.0,55,0.00,,,0.00,Wunderground v.1.15,2013-03-29 11:04:00,
2013-03-29 06:09:00,38.8,24.0,30.28,ESE,123,9.0,11.0,55,0.00,,,0.00,Wunderground v.1.15,2013-03-29 11:09:00,
2013-03-29 06:14:00,38.8,24.0,30.28,SE,128,8.0,10.0,55,0.00,,,0.00,Wunderground v.1.15,2013-03-29 11:14:00,
2013-03-29 06:19:00,38.8,24.0,30.28,SE,131,8.0,10.0,55,0.00,,,0.00,Wunderground v.1.15,2013-03-29 11:19:00,
2013-03-29 06:24:00,39.0,24.2,30.28,SE,128,5.0,9.0,55,0.00,,,0.00,Wunderground v.1.15,2013-03-29 11:24:00,
2013-03-29 06:29:00,39.3,24.0,30.28,WSW,240,5.0,11.0,54,0.00,,,0.00,Wunderground v.1.15,2013-03-29 11:29:00,
2013-03-29 06:34:00,39.5,24.2,30.28,SSE,159,7.0,9.0,54,0.00,,,0.00,Wunderground v.1.15,2013-03-29 11:34:00,
2013-03-29 06:39:00,39.6,24.3,30.29,West,281,4.0,10.0,54,0.00,,,0.00,Wunderground v.1.15,2013-03-29 11:39:00,
2013-03-29 06:44:00,39.7,24.0,30.29,SE,124,8.0,9.0,53,0.00,,,0.00,Wunderground v.1.15,2013-03-29 11:44:00,
2013-03-29 06:49:00,39.9,23.7,30.29,SSE,153,5.0,10.0,52,0.00,,,0.00,Wunderground v.1.15,2013-03-29 11:49:00,
2013-03-29 06:54:00,40.2,24.0,30.30,SE,140,7.0,8.0,52,0.00,,,0.00,Wunderground v.1.15,2013-03-29 11:54:00,
2013-03-29 06:59:00,40.6,24.3,30.30,SE,134,6.0,8.0,52,0.00,,,0.00,Wunderground v.1.15,2013-03-29 11:59:00,
2013-03-29 07:04:00,40.8,24.5,30.30,SE,126,9.0,9.0,52,0.00,,,0.00,Wunderground v.1.15,2013-03-29 12:04:00,
2013-03-29 07:09:00,40.9,24.6,30.30,SSE,148,7.0,10.0,52,0.00,,,0.00,Wunderground v.1.15,2013-03-29 12:09:00,
2013-03-29 07:14:00,41.0,24.7,30.30,SE,128,7.0,9.0,52,0.00,,,0.00,Wunderground v.1.15,2013-03-29 12:14:00,
2013-03-29 07:19:00,41.1,24.8,30.30,WSW,257,4.0,9.0,52,0.00,,,0.00,Wunderground v.1.15,2013-03-29 12:19:00,
2013-03-29 07:24:00,41.3,24.5,30.30,ESE,105,7.0,8.0,51,0.00,,,0.00,Wunderground v.1.15,2013-03-29 12:24:00,
2013-03-29 07:29:00,41.5,24.7,30.30,ESE,115,5.0,10.0,51,0.00,,,0.00,Wunderground v.1.15,2013-03-29 12:29:00,
2013-03-29 07:34:00,41.6,24.3,30.30,East,84,3.0,10.0,50,0.00,,,0.00,Wunderground v.1.15,2013-03-29 12:34:00,
2013-03-29 07:39:00,41.8,25.0,30.30,SE,134,5.0,10.0,51,0.00,,,0.00,Wunderground v.1.15,2013-03-29 12:39:00,
2013-03-29 07:44:00,41.9,24.6,30.30,SE,136,6.0,9.0,50,0.00,,,0.00,Wunderground v.1.15,2013-03-29 12:44:00,
2013-03-29 07:49:00,42.0,24.7,30.30,SE,133,2.0,9.0,50,0.00,,,0.00,Wunderground v.1.15,2013-03-29 12:49:00,
2013-03-29 07:55:00,42.2,24.9,30.30,SE,131,6.0,8.0,50,0.00,,,0.00,Wunderground v.1.15,2013-03-29 12:55:00,
2013-03-29 08:00:00,42.3,24.5,30.31,East,101,3.0,4.0,49,0.00,,,0.00,Wunderground v.1.15,2013-03-29 13:00:00,
2013-03-29 08:05:00,42.4,24.6,30.32,SE,129,0.0,4.0,49,0.00,,,0.00,Wunderground v.1.15,2013-03-29 13:05:00,
2013-03-29 08:10:00,42.4,24.6,30.32,SSE,157,3.0,3.0,49,0.00,,,0.00,Wunderground v.1.15,2013-03-29 13:10:00,
2013-03-29 08:15:00,42.4,24.6,30.31,SE,134,6.0,8.0,49,0.00,,,0.00,Wunderground v.1.15,2013-03-29 13:15:00,
2013-03-29 08:20:00,42.5,25.1,30.31,SE,134,7.0,7.0,50,0.00,,,0.00,Wunderground v.1.15,2013-03-29 13:20:00,
2013-03-29 08:25:00,42.7,25.3,30.31,SE,133,6.0,9.0,50,0.00,,,0.00,Wunderground v.1.15,2013-03-29 13:25:00,
2013-03-29 08:30:00,42.8,24.9,30.31,SE,144,6.0,6.0,49,0.00,,,0.00,Wunderground v.1.15,2013-03-29 13:30:00,
2013-03-29 08:35:00,43.0,25.6,30.31,SE,131,2.0,7.0,50,0.00,,,0.00,Wunderground v.1.15,2013-03-29 13:35:00,
2013-03-29 08:40:00,43.2,25.3,30.31,East,90,2.0,5.0,49,0.00,,,0.00,Wunderground v.1.15,2013-03-29 13:40:00,
2013-03-29 08:45:00,43.3,25.4,30.31,ESE,120,3.0,8.0,49,0.00,,,0.00,Wunderground v.1.15,2013-03-29 13:45:00,
2013-03-29 08:50:00,43.5,26.6,30.31,SE,130,3.0,5.0,51,0.00,,,0.00,Wunderground v.1.15,2013-03-29 13:50:00,
2013-03-29 08:55:00,43.5,25.6,30.32,SE,141,0.0,6.0,49,0.00,,,0.00,Wunderground v.1.15,2013-03-29 13:55:00,
2013-03-29 09:00:00,43.6,26.2,30.32,SE,137,1.0,3.0,50,0.00,,,0.00,Wunderground v.1.15,2013-03-29 14:00:00,
2013-03-29 09:05:00,43.6,26.2,30.32,ESE,120,2.0,6.0,50,0.00,,,0.00,Wunderground v.1.15,2013-03-29 14:05:00,
2013-03-29 09:10:00,43.5,25.1,30.32,ESE,107,5.0,5.0,48,0.00,,,0.00,Wunderground v.1.15,2013-03-29 14:10:00,
2013-03-29 09:15:00,43.5,25.1,30.32,SE,136,1.0,5.0,48,0.00,,,0.00,Wunderground v.1.15,2013-03-29 14:15:00,
2013-03-29 09:20:00,43.5,25.6,30.32,SSE,161,1.0,3.0,49,0.00,,,0.00,Wunderground v.1.15,2013-03-29 14:20:00,
2013-03-29 09:25:00,43.6,25.2,30.32,SSE,155,2.0,4.0,48,0.00,,,0.00,Wunderground v.1.15,2013-03-29 14:25:00,
2013-03-29 09:30:00,43.7,25.3,30.32,SE,131,3.0,3.0,48,0.00,,,0.00,Wunderground v.1.15,2013-03-29 14:30:00,
2013-03-29 09:35:00,43.8,24.9,30.32,SE,130,0.0,3.0,47,0.00,,,0.00,Wunderground v.1.15,2013-03-29 14:35:00,
2013-03-29 09:41:00,44.0,25.0,30.32,SE,140,0.0,2.0,47,0.00,,,0.00,Wunderground v.1.15,2013-03-29 14:41:00,
2013-03-29 09:46:00,44.2,26.2,30.32,SE,139,0.0,4.0,49,0.00,,,0.00,Wunderground v.1.15,2013-03-29 14:46:00,
2013-03-29 09:51:00,44.5,26.0,30.33,SE,138,0.0,2.0,48,0.00,,,0.00,Wunderground v.1.15,2013-03-29 14:51:00,
2013-03-29 09:56:00,44.7,25.7,30.32,SE,130,1.0,4.0,47,0.00,,,0.00,Wunderground v.1.15,2013-03-29 14:56:00,
2013-03-29 10:01:00,44.9,26.4,30.32,North,351,3.0,8.0,48,0.00,,,0.00,Wunderground v.1.15,2013-03-29 15:01:00,
2013-03-29 10:06:00,44.9,28.8,30.32,ESE,117,8.0,9.0,53,0.00,,,0.00,Wunderground v.1.15,2013-03-29 15:06:00,
2013-03-29 10:11:00,44.6,28.0,30.32,SE,133,4.0,5.0,52,0.00,,,0.00,Wunderground v.1.15,2013-03-29 15:11:00,
2013-03-29 10:16:00,44.6,28.0,30.33,SW,230,2.0,5.0,52,0.00,,,0.00,Wunderground v.1.15,2013-03-29 15:16:00,
2013-03-29 10:21:00,44.6,28.0,30.33,SW,230,0.0,1.0,52,0.00,,,0.00,Wunderground v.1.15,2013-03-29 15:21:00,
2013-03-29 10:26:00,44.7,28.1,30.33,SSE,148,0.0,1.0,52,0.00,,,0.00,Wunderground v.1.15,2013-03-29 15:26:00,
2013-03-29 10:31:00,44.7,28.6,30.33,SE,131,0.0,1.0,53,0.00,,,0.00,Wunderground v.1.15,2013-03-29 15:31:00,
2013-03-29 10:36:00,44.7,28.6,30.33,SE,126,1.0,3.0,53,0.00,,,0.00,Wunderground v.1.15,2013-03-29 15:36:00,
2013-03-29 10:41:00,44.8,28.2,30.33,SE,132,1.0,5.0,52,0.00,,,0.00,Wunderground v.1.15,2013-03-29 15:41:00,
2013-03-29 10:46:00,44.8,28.2,30.33,SE,131,3.0,5.0,52,0.00,,,0.00,Wunderground v.1.15,2013-03-29 15:46:00,
2013-03-29 10:51:00,45.1,29.0,30.33,SE,130,0.0,1.0,53,0.00,,,0.00,Wunderground v.1.15,2013-03-29 15:51:00,
2013-03-29 10:56:00,45.3,29.2,30.33,SE,130,0.0,1.0,53,0.00,,,0.00,Wunderground v.1.15,2013-03-29 15:56:00,
2013-03-29 11:02:00,45.6,30.3,30.33,ESE,112,0.0,2.0,55,0.00,,,0.00,Wunderground v.1.15,2013-03-29 16:02:00,
2013-03-29 11:07:00,45.7,30.4,30.33,SE,127,3.0,3.0,55,0.00,,,0.00,Wunderground v.1.15,2013-03-29 16:07:00,
2013-03-29 11:12:00,45.8,30.1,30.32,ESE,106,5.0,5.0,54,0.00,,,0.00,Wunderground v.1.15,2013-03-29 16:12:00,
2013-03-29 11:17:00,45.8,30.1,30.32,ESE,113,2.0,5.0,54,0.00,,,0.00,Wunderground v.1.15,2013-03-29 16:17:00,
2013-03-29 11:22:00,45.7,30.4,30.33,SSW,196,2.0,4.0,55,0.00,,,0.00,Wunderground v.1.15,2013-03-29 16:22:00,
2013-03-29 11:27:00,45.7,29.5,30.32,East,90,3.0,5.0,53,0.00,,,0.00,Wunderground v.1.15,2013-03-29 16:27:00,
2013-03-29 11:32:00,45.8,30.1,30.32,ESE,113,4.0,5.0,54,0.00,,,0.00,Wunderground v.1.15,2013-03-29 16:32:00,
2013-03-29 11:37:00,46.0,31.2,30.32,WSW,237,0.0,5.0,56,0.00,,,0.00,Wunderground v.1.15,2013-03-29 16:37:00,
2013-03-29 11:42:00,46.2,30.5,30.32,SE,143,0.0,1.0,54,0.00,,,0.00,Wunderground v.1.15,2013-03-29 16:42:00,
2013-03-29 11:47:00,46.3,31.0,30.32,ESE,121,1.0,4.0,55,0.00,,,0.00,Wunderground v.1.15,2013-03-29 16:47:00,
2013-03-29 11:52:00,46.3,31.0,30.32,ESE,123,0.0,3.0,55,0.00,,,0.00,Wunderground v.1.15,2013-03-29 16:52:00,
2013-03-29 11:57:00,46.4,30.6,30.32,SE,139,1.0,3.0,54,0.00,,,0.00,Wunderground v.1.15,2013-03-29 16:57:00,
2013-03-29 12:02:00,46.5,31.2,30.32,SE,129,2.0,5.0,55,0.00,,,0.00,Wunderground v.1.15,2013-03-29 17:02:00,
2013-03-29 12:08:00,46.6,32.6,30.32,East,98,3.0,5.0,58,0.00,,,0.00,Wunderground v.1.15,2013-03-29 17:08:00,
2013-03-29 12:13:00,47.1,32.6,30.31,NNE,12,1.0,2.0,57,0.00,,,0.00,Wunderground v.1.15,2013-03-29 17:13:00,
2013-03-29 12:18:00,47.7,30.4,30.31,ESE,111,2.0,3.0,51,0.00,,,0.00,Wunderground v.1.15,2013-03-29 17:18:00,
2013-03-29 12:23:00,48.3,31.5,30.30,East,93,5.0,5.0,52,0.00,,,0.00,Wunderground v.1.15,2013-03-29 17:23:00,
2013-03-29 12:28:00,48.6,30.8,30.30,East,82,2.0,5.0,50,0.00,,,0.00,Wunderground v.1.15,2013-03-29 17:28:00,
2013-03-29 12:33:00,49.1,30.7,30.30,East,94,1.0,6.0,49,0.00,,,0.00,Wunderground v.1.15,2013-03-29 17:33:00,
2013-03-29 12:38:00,49.5,29.6,30.30,NE,38,0.0,6.0,46,0.00,,,0.00,Wunderground v.1.15,2013-03-29 17:38:00,
2013-03-29 12:43:00,49.7,30.3,30.29,East,96,2.0,6.0,47,0.00,,,0.00,Wunderground v.1.15,2013-03-29 17:43:00,
2013-03-29 12:48:00,50.0,31.1,30.29,East,99,0.0,6.0,48,0.00,,,0.00,Wunderground v.1.15,2013-03-29 17:48:00,
2013-03-29 12:53:00,50.2,31.8,30.29,ESE,109,0.0,2.0,49,0.00,,,0.00,Wunderground v.1.15,2013-03-29 17:53:00,
2013-03-29 12:58:00,50.0,31.6,30.29,WNW,290,0.0,3.0,49,0.00,,,0.00,Wunderground v.1.15,2013-03-29 17:58:00,
2013-03-29 13:03:00,49.7,30.8,30.29,SE,132,0.0,2.0,48,0.00,,,0.00,Wunderground v.1.15,2013-03-29 18:03:00,
2013-03-29 13:08:00,49.5,30.6,30.29,SE,136,0.0,2.0,48,0.00,,,0.00,Wunderground v.1.15,2013-03-29 18:08:00,
2013-03-29 13:13:00,49.1,31.2,30.28,ESE,119,1.0,2.0,50,0.00,,,0.00,Wunderground v.1.15,2013-03-29 18:13:00,
2013-03-29 13:18:00,48.6,32.7,30.28,ESE,115,1.0,4.0,54,0.00,,,0.00,Wunderground v.1.15,2013-03-29 18:18:00,
2013-03-29 13:24:00,48.1,32.2,30.27,SE,132,0.0,5.0,54,0.00,,,0.00,Wunderground v.1.15,2013-03-29 18:24:00,
2013-03-29 13:29:00,47.7,32.8,30.27,ESE,119,3.0,5.0,56,0.00,,,0.00,Wunderground v.1.15,2013-03-29 18:29:00,
2013-03-29 13:34:00,47.5,33.0,30.27,SE,141,2.0,5.0,57,0.00,,,0.00,Wunderground v.1.15,2013-03-29 18:34:00,
2013-03-29 13:39:00,47.5,33.0,30.27,SE,141,1.0,5.0,57,0.00,,,0.00,Wunderground v.1.15,2013-03-29 18:39:00,
2013-03-29 13:44:00,47.6,30.8,30.27,East,86,5.0,5.0,52,0.00,,,0.00,Wunderground v.1.15,2013-03-29 18:44:00,
2013-03-29 13:49:00,47.8,31.0,30.27,SE,126,0.0,6.0,52,0.00,,,0.00,Wunderground v.1.15,2013-03-29 18:49:00,
2013-03-29 13:54:00,48.2,31.4,30.27,East,92,2.0,7.0,52,0.00,,,0.00,Wunderground v.1.15,2013-03-29 18:54:00,
2013-03-29 13:59:00,48.5,30.7,30.27,ESE,123,1.0,7.0,50,0.00,,,0.00,Wunderground v.1.15,2013-03-29 18:59:00,
2013-03-29 14:04:00,48.6,30.3,30.27,NNE,19,2.0,4.0,49,0.00,,,0.00,Wunderground v.1.15,2013-03-29 19:04:00,
2013-03-29 14:09:00,48.7,30.4,30.26,East,98,1.0,6.0,49,0.00,,,0.00,Wunderground v.1.15,2013-03-29 19:09:00,
2013-03-29 14:14:00,48.7,30.9,30.26,ESE,119,1.0,5.0,50,0.00,,,0.00,Wunderground v.1.15,2013-03-29 19:14:00,
2013-03-29 14:19:00,48.8,31.0,30.26,ESE,111,0.0,5.0,50,0.00,,,0.00,Wunderground v.1.15,2013-03-29 19:19:00,
2013-03-29 14:24:00,48.7,30.4,30.26,ESE,123,0.0,3.0,49,0.00,,,0.00,Wunderground v.1.15,2013-03-29 19:24:00,
2013-03-29 14:29:00,48.7,30.9,30.26,South,189,0.0,4.0,50,0.00,,,0.00,Wunderground v.1.15,2013-03-29 19:29:00,
2013-03-29 14:34:00,48.8,31.0,30.26,East,90,1.0,6.0,50,0.00,,,0.00,Wunderground v.1.15,2013-03-29 19:34:00,
2013-03-29 14:39:00,49.0,31.6,30.26,ESE,123,2.0,6.0,51,0.00,,,0.00,Wunderground v.1.15,2013-03-29 19:39:00,
2013-03-29 14:44:00,49.0,31.2,30.25,ESE,105,2.0,7.0,50,0.00,,,0.00,Wunderground v.1.15,2013-03-29 19:44:00,
2013-03-29 14:49:00,48.8,31.9,30.25,SE,136,3.0,7.0,52,0.00,,,0.00,Wunderground v.1.15,2013-03-29 19:49:00,
2013-03-29 14:54:00,48.6,32.7,30.25,ESE,110,0.0,7.0,54,0.00,,,0.00,Wunderground v.1.15,2013-03-29 19:54:00,
2013-03-29 14:59:00,48.5,32.6,30.25,SE,134,3.0,7.0,54,0.00,,,0.00,Wunderground v.1.15,2013-03-29 19:59:00,
2013-03-29 15:04:00,48.1,32.7,30.25,SSW,205,4.0,7.0,55,0.00,,,0.00,Wunderground v.1.15,2013-03-29 20:04:00,
2013-03-29 15:09:00,47.7,32.8,30.25,ENE,71,3.0,7.0,56,0.00,,,0.00,Wunderground v.1.15,2013-03-29 20:09:00,
2013-03-29 15:14:00,47.4,32.9,30.25,SSE,161,1.0,5.0,57,0.00,,,0.00,Wunderground v.1.15,2013-03-29 20:14:00,
2013-03-29 15:19:00,47.2,33.6,30.25,SE,132,0.0,7.0,59,0.00,,,0.00,Wunderground v.1.15,2013-03-29 20:19:00,
2013-03-29 15:24:00,47.0,33.4,30.24,SSE,167,2.0,5.0,59,0.00,,,0.00,Wunderground v.1.15,2013-03-29 20:24:00,
2013-03-29 15:29:00,46.9,33.7,30.24,SSE,157,0.0,7.0,60,0.00,,,0.00,Wunderground v.1.15,2013-03-29 20:29:00,
2013-03-29 15:34:00,46.8,34.0,30.23,ESE,116,3.0,8.0,61,0.00,,,0.00,Wunderground v.1.15,2013-03-29 20:34:00,
2013-03-29 15:39:00,46.8,34.5,30.23,ESE,123,3.0,10.0,62,0.00,,,0.00,Wunderground v.1.15,2013-03-29 20:39:00,
2013-03-29 15:44:00,46.7,34.4,30.23,ESE,111,5.0,8.0,62,0.00,,,0.00,Wunderground v.1.15,2013-03-29 20:44:00,
2013-03-29 15:49:00,46.7,34.4,30.23,ESE,111,8.0,9.0,62,0.00,,,0.00,Wunderground v.1.15,2013-03-29 20:49:00,
2013-03-29 15:54:00,46.9,34.6,30.23,ESE,115,8.0,8.0,62,0.00,,,0.00,Wunderground v.1.15,2013-03-29 20:54:00,
2013-03-29 15:59:00,47.3,34.5,30.22,ENE,61,3.0,8.0,61,0.00,,,0.00,Wunderground v.1.15,2013-03-29 20:59:00,
2013-03-29 16:04:00,48.1,35.3,30.22,SE,138,5.0,9.0,61,0.00,,,0.00,Wunderground v.1.15,2013-03-29 21:04:00,
2013-03-29 16:09:00,48.6,35.3,30.22,SSW,202,1.0,9.0,60,0.00,,,0.00,Wunderground v.1.15,2013-03-29 21:09:00,
2013-03-29 16:14:00,49.2,35.5,30.22,ESE,120,1.0,7.0,59,0.00,,,0.00,Wunderground v.1.15,2013-03-29 21:14:00,
2013-03-29 16:19:00,49.6,35.0,30.22,SE,127,3.0,7.0,57,0.00,,,0.00,Wunderground v.1.15,2013-03-29 21:19:00,
2013-03-29 16:24:00,49.7,34.2,30.22,SE,144,2.0,3.0,55,0.00,,,0.00,Wunderground v.1.15,2013-03-29 21:24:00,
2013-03-29 16:29:00,49.4,33.9,30.22,SE,129,1.0,4.0,55,0.00,,,0.00,Wunderground v.1.15,2013-03-29 21:29:00,
2013-03-29 16:34:00,48.9,33.9,30.22,SSE,158,0.0,4.0,56,0.00,,,0.00,Wunderground v.1.15,2013-03-29 21:34:00,
2013-03-29 16:39:00,48.6,34.0,30.22,SE,126,4.0,5.0,57,0.00,,,0.00,Wunderground v.1.15,2013-03-29 21:39:00,
2013-03-29 16:44:00,48.4,34.3,30.22,SSW,211,0.0,6.0,58,0.00,,,0.00,Wunderground v.1.15,2013-03-29 21:44:00,
2013-03-29 16:49:00,48.3,34.2,30.22,SE,146,1.0,6.0,58,0.00,,,0.00,Wunderground v.1.15,2013-03-29 21:49:00,
2013-03-29 16:54:00,48.1,34.0,30.22,ESE,121,2.0,7.0,58,0.00,,,0.00,Wunderground v.1.15,2013-03-29 21:54:00,
2013-03-29 16:59:00,47.9,33.8,30.22,SE,129,6.0,7.0,58,0.00,,,0.00,Wunderground v.1.15,2013-03-29 21:59:00,
2013-03-29 17:04:00,47.7,33.6,30.22,East,100,3.0,6.0,58,0.00,,,0.00,Wunderground v.1.15,2013-03-29 22:04:00,
2013-03-29 17:09:00,47.4,34.2,30.22,East,89,6.0,7.0,60,0.00,,,0.00,Wunderground v.1.15,2013-03-29 22:09:00,
2013-03-29 17:14:00,47.2,34.4,30.21,SE,129,5.0,7.0,61,0.00,,,0.00,Wunderground v.1.15,2013-03-29 22:14:00,
2013-03-29 17:19:00,47.0,35.0,30.21,ESE,119,7.0,8.0,63,0.00,,,0.00,Wunderground v.1.15,2013-03-29 22:19:00,
2013-03-29 17:24:00,46.6,35.1,30.21,SSE,157,3.0,8.0,64,0.00,,,0.00,Wunderground v.1.15,2013-03-29 22:24:00,
2013-03-29 17:29:00,46.3,35.6,30.21,South,170,3.0,9.0,66,0.00,,,0.00,Wunderground v.1.15,2013-03-29 22:29:00,
2013-03-29 17:34:00,45.9,35.6,30.21,SE,136,7.0,8.0,67,0.00,,,0.00,Wunderground v.1.15,2013-03-29 22:34:00,
2013-03-29 17:39:00,45.4,35.8,30.21,ESE,121,5.0,8.0,69,0.00,,,0.00,Wunderground v.1.15,2013-03-29 22:39:00,
2013-03-29 17:44:00,45.0,36.2,30.21,SSW,204,3.0,9.0,71,0.00,,,0.00,Wunderground v.1.15,2013-03-29 22:44:00,
2013-03-29 17:49:00,44.6,36.1,30.21,SE,129,7.0,9.0,72,0.00,,,0.00,Wunderground v.1.15,2013-03-29 22:49:00,
2013-03-29 17:54:00,44.3,35.8,30.21,ESE,121,5.0,9.0,72,0.00,,,0.00,Wunderground v.1.15,2013-03-29 22:54:00,
2013-03-29 17:59:00,43.9,35.8,30.21,SE,128,9.0,10.0,73,0.00,,,0.00,Wunderground v.1.15,2013-03-29 22:59:00,
2013-03-29 18:05:00,43.6,35.9,30.21,ESE,117,10.0,10.0,74,0.00,,,0.00,Wunderground v.1.15,2013-03-29 23:05:00,
2013-03-29 18:10:00,43.3,35.9,30.20,ESE,118,7.0,9.0,75,0.00,,,0.00,Wunderground v.1.15,2013-03-29 23:10:00,
2013-03-29 18:15:00,43.1,36.0,30.20,SSE,150,6.0,10.0,76,0.00,,,0.00,Wunderground v.1.15,2013-03-29 23:15:00,
2013-03-29 18:20:00,42.9,36.2,30.20,ESE,115,9.0,9.0,77,0.00,,,0.00,Wunderground v.1.15,2013-03-29 23:20:00,
2013-03-29 18:25:00,42.7,36.0,30.20,SE,124,8.0,10.0,77,0.00,,,0.00,Wunderground v.1.15,2013-03-29 23:25:00,
2013-03-29 18:30:00,42.4,35.7,30.20,SE,124,9.0,9.0,77,0.00,,,0.00,Wunderground v.1.15,2013-03-29 23:30:00,
2013-03-29 18:35:00,42.2,35.8,30.20,SE,141,6.0,10.0,78,0.00,,,0.00,Wunderground v.1.15,2013-03-29 23:35:00,
2013-03-29 18:40:00,41.9,35.9,30.20,SE,127,7.0,8.0,79,0.00,,,0.00,Wunderground v.1.15,2013-03-29 23:40:00,
2013-03-29 18:45:00,41.7,36.0,30.20,SE,130,7.0,10.0,80,0.00,,,0.00,Wunderground v.1.15,2013-03-29 23:45:00,
2013-03-29 18:50:00,41.5,36.1,30.20,SE,128,9.0,9.0,81,0.00,,,0.00,Wunderground v.1.15,2013-03-29 23:50:00,
2013-03-29 18:55:00,41.3,35.9,30.20,ESE,117,10.0,11.0,81,0.00,,,0.00,Wunderground v.1.15,2013-03-29 23:55:00,
2013-03-29 19:00:00,41.1,36.0,30.20,SSE,150,7.0,10.0,82,0.00,,,0.00,Wunderground v.1.15,2013-03-30 00:00:00,
2013-03-29 19:05:00,41.0,35.9,30.20,SE,130,8.0,11.0,82,0.00,,,0.00,Wunderground v.1.15,2013-03-30 00:05:00,
2013-03-29 19:10:00,40.9,36.1,30.20,ESE,123,5.0,9.0,83,0.00,,,0.00,Wunderground v.1.15,2013-03-30 00:10:00,
2013-03-29 19:15:00,40.7,35.9,30.20,SE,130,7.0,10.0,83,0.00,,,0.00,Wunderground v.1.15,2013-03-30 00:15:00,
2013-03-29 19:20:00,40.7,36.2,30.20,ESE,115,5.0,11.0,84,0.00,,,0.00,Wunderground v.1.15,2013-03-30 00:20:00,
2013-03-29 19:25:00,40.6,36.1,30.20,SE,137,5.0,11.0,84,0.00,,,0.00,Wunderground v.1.15,2013-03-30 00:25:00,
2013-03-29 19:30:00,40.6,36.4,30.20,SSE,151,9.0,10.0,85,0.00,,,0.00,Wunderground v.1.15,2013-03-30 00:30:00,
2013-03-29 19:35:00,40.6,36.4,30.20,SE,134,9.0,12.0,85,0.00,,,0.00,Wunderground v.1.15,2013-03-30 00:35:00,
2013-03-29 19:41:00,40.5,36.6,30.20,SE,136,8.0,11.0,86,0.00,,,0.00,Wunderground v.1.15,2013-03-30 00:41:00,
2013-03-29 19:46:00,40.4,36.5,30.20,SE,134,7.0,11.0,86,0.00,,,0.00,Wunderground v.1.15,2013-03-30 00:46:00,
2013-03-29 19:52:00,40.3,36.7,30.20,SE,139,9.0,10.0,87,0.00,,,0.00,Wunderground v.1.15,2013-03-30 00:52:00,
2013-03-29 19:57:00,40.2,36.6,30.20,SE,125,6.0,10.0,87,0.00,,,0.00,Wunderground v.1.15,2013-03-30 00:57:00,
2013-03-29 20:02:00,40.2,36.9,30.20,ESE,117,9.0,11.0,88,0.00,,,0.00,Wunderground v.1.15,2013-03-30 01:02:00,
2013-03-29 20:07:00,40.1,36.8,30.20,SSE,167,9.0,12.0,88,0.00,,,0.00,Wunderground v.1.15,2013-03-30 01:07:00,
2013-03-29 20:12:00,40.0,37.0,30.20,ESE,119,11.0,11.0,89,0.00,,,0.00,Wunderground v.1.15,2013-03-30 01:12:00,
2013-03-29 20:17:00,39.9,36.9,30.20,ESE,120,9.0,12.0,89,0.00,,,0.00,Wunderground v.1.15,2013-03-30 01:17:00,
2013-03-29 20:22:00,39.9,36.9,30.20,ESE,118,10.0,11.0,89,0.00,,,0.00,Wunderground v.1.15,2013-03-30 01:22:00,
2013-03-29 20:27:00,39.9,37.2,30.20,ESE,113,10.0,11.0,90,0.00,,,0.00,Wunderground v.1.15,2013-03-30 01:27:00,
2013-03-29 20:32:00,39.9,37.2,30.20,SE,124,9.0,10.0,90,0.00,,,0.00,Wunderground v.1.15,2013-03-30 01:32:00,
2013-03-29 20:37:00,39.9,37.2,30.20,ESE,121,10.0,11.0,90,0.00,,,0.00,Wunderground v.1.15,2013-03-30 01:37:00,
2013-03-29 20:42:00,39.9,37.2,30.20,SE,139,5.0,11.0,90,0.00,,,0.00,Wunderground v.1.15,2013-03-30 01:42:00,
2013-03-29 20:47:00,40.0,37.3,30.20,SE,130,8.0,11.0,90,0.00,,,0.00,Wunderground v.1.15,2013-03-30 01:47:00,
2013-03-29 20:52:00,40.0,37.3,30.20,SE,126,8.0,11.0,90,0.00,,,0.00,Wunderground v.1.15,2013-03-30 01:52:00,
2013-03-29 20:57:00,40.0,37.3,30.21,ESE,112,9.0,11.0,90,0.00,,,0.00,Wunderground v.1.15,2013-03-30 01:57:00,
2013-03-29 21:02:00,40.1,37.4,30.21,SSE,163,8.0,10.0,90,0.00,,,0.00,Wunderground v.1.15,2013-03-30 02:02:00,
2013-03-29 21:07:00,40.1,37.4,30.21,ESE,111,9.0,10.0,90,0.00,,,0.00,Wunderground v.1.15,2013-03-30 02:07:00,
2013-03-29 21:12:00,40.1,37.4,30.21,SE,130,8.0,9.0,90,0.00,,,0.00,Wunderground v.1.15,2013-03-30 02:12:00,
2013-03-29 21:17:00,40.1,37.4,30.21,ESE,117,10.0,11.0,90,0.00,,,0.00,Wunderground v.1.15,2013-03-30 02:17:00,
2013-03-29 21:22:00,40.1,37.4,30.21,ESE,115,8.0,11.0,90,0.00,,,0.00,Wunderground v.1.15,2013-03-30 02:22:00,
2013-03-29 21:27:00,40.1,37.4,30.22,SE,132,7.0,11.0,90,0.00,,,0.00,Wunderground v.1.15,2013-03-30 02:27:00,
2013-03-29 21:32:00,40.1,37.4,30.22,ESE,123,2.0,8.0,90,0.00,,,0.00,Wunderground v.1.15,2013-03-30 02:32:00,
2013-03-29 21:38:00,40.2,37.5,30.22,SE,134,5.0,8.0,90,0.00,,,0.00,Wunderground v.1.15,2013-03-30 02:38:00,
2013-03-29 21:43:00,40.2,37.5,30.22,SE,132,5.0,5.0,90,0.00,,,0.00,Wunderground v.1.15,2013-03-30 02:43:00,
2013-03-29 21:48:00,40.1,37.4,30.21,ESE,123,9.0,9.0,90,0.00,,,0.00,Wunderground v.1.15,2013-03-30 02:48:00,
2013-03-29 21:53:00,40.1,37.4,30.21,ESE,120,11.0,11.0,90,0.00,,,0.00,Wunderground v.1.15,2013-03-30 02:53:00,
2013-03-29 21:58:00,40.1,37.7,30.21,SE,139,10.0,12.0,91,0.00,,,0.00,Wunderground v.1.15,2013-03-30 02:58:00,
2013-03-29 22:03:00,40.1,37.7,30.21,SE,129,10.0,12.0,91,0.00,,,0.00,Wunderground v.1.15,2013-03-30 03:03:00,
2013-03-29 22:08:00,40.1,37.7,30.22,SE,132,7.0,12.0,91,0.00,,,0.00,Wunderground v.1.15,2013-03-30 03:08:00,
2013-03-29 22:13:00,40.2,37.8,30.21,SE,140,8.0,9.0,91,0.00,,,0.00,Wunderground v.1.15,2013-03-30 03:13:00,
2013-03-29 22:18:00,40.2,37.5,30.21,SE,130,9.0,12.0,90,0.00,,,0.00,Wunderground v.1.15,2013-03-30 03:18:00,
2013-03-29 22:23:00,40.4,37.4,30.21,SE,126,6.0,12.0,89,0.00,,,0.00,Wunderground v.1.15,2013-03-30 03:23:00,
2013-03-29 22:28:00,40.5,37.5,30.22,ESE,121,2.0,12.0,89,0.00,,,0.00,Wunderground v.1.15,2013-03-30 03:28:00,
2013-03-29 22:33:00,40.5,37.2,30.21,SE,145,6.0,9.0,88,0.00,,,0.00,Wunderground v.1.15,2013-03-30 03:33:00,
2013-03-29 22:38:00,40.6,37.6,30.21,ESE,120,10.0,11.0,89,0.00,,,0.00,Wunderground v.1.15,2013-03-30 03:38:00,
2013-03-29 22:43:00,40.5,37.5,30.22,East,92,6.0,8.0,89,0.00,,,0.00,Wunderground v.1.15,2013-03-30 03:43:00,
2013-03-29 22:48:00,40.6,37.3,30.22,SE,133,6.0,8.0,88,0.00,,,0.00,Wunderground v.1.15,2013-03-30 03:48:00,
2013-03-29 22:54:00,40.7,37.4,30.21,SE,127,8.0,10.0,88,0.00,,,0.00,Wunderground v.1.15,2013-03-30 03:54:00,
2013-03-29 22:59:00,40.7,37.4,30.21,SE,142,8.0,10.0,88,0.00,,,0.00,Wunderground v.1.15,2013-03-30 03:59:00,
2013-03-29 23:00:00,40.7,37.4,30.21,SE,134,4.0,7.0,88,0.00,,,0.00,Wunderground v.1.15,2013-03-30 04:00:00,
2013-03-29 23:01:00,40.6,37.3,30.21,SE,130,5.0,7.0,88,0.00,,,0.00,Wunderground v.1.15,2013-03-30 04:01:00,
2013-03-29 23:06:00,40.7,37.4,30.22,SE,135,3.0,7.0,88,0.00,,,0.00,Wunderground v.1.15,2013-03-30 04:06:00,
2013-03-29 23:11:00,40.7,37.4,30.21,SE,140,6.0,6.0,88,0.00,,,0.00,Wunderground v.1.15,2013-03-30 04:11:00,
2013-03-29 23:16:00,40.8,37.5,30.21,ESE,117,10.0,11.0,88,0.00,,,0.00,Wunderground v.1.15,2013-03-30 04:16:00,
2013-03-29 23:21:00,40.8,37.5,30.21,SE,125,7.0,9.0,88,0.00,,,0.00,Wunderground v.1.15,2013-03-30 04:21:00,
2013-03-29 23:27:00,40.7,37.4,30.21,SE,134,2.0,9.0,88,0.00,,,0.00,Wunderground v.1.15,2013-03-30 04:27:00,
2013-03-29 23:32:00,40.7,37.4,30.21,SE,134,6.0,7.0,88,0.00,,,0.00,Wunderground v.1.15,2013-03-30 04:32:00,
2013-03-29 23:37:00,40.6,37.6,30.20,ESE,122,11.0,11.0,89,0.00,,,0.00,Wunderground v.1.15,2013-03-30 04:37:00,
2013-03-29 23:42:00,40.5,37.8,30.20,SSE,163,7.0,10.0,90,0.00,,,0.00,Wunderground v.1.15,2013-03-30 04:42:00,
2013-03-29 23:47:00,40.3,37.6,30.20,ESE,122,7.0,10.0,90,0.00,,,0.00,Wunderground v.1.15,2013-03-30 04:47:00,
2013-03-29 23:52:00,40.3,37.6,30.20,East,91,6.0,6.0,90,0.00,,,0.00,Wunderground v.1.15,2013-03-30 04:52:00,
2013-03-29 23:57:00,40.3,37.6,30.20,SE,132,7.0,10.0,90,0.00,,,0.00,Wunderground v.1.15,2013-03-30 04:57:00,